sensor_id;sensor_type;location;lat;lon;timestamp;temperature;humidity
72756;SHT30;60881;55.002;73.232;2022-10-16T00:01:34;10.94;67.13
72756;SHT30;60881;55.002;73.232;2022-10-16T00:04:06;11.01;66.34
72756;SHT30;60881;55.002;73.232;2022-10-16T00:06:33;11.06;66.27
72756;SHT30;60881;55.002;73.232;2022-10-16T00:09:00;11.08;66.02
72756;SHT30;60881;55.002;73.232;2022-10-16T00:11:34;11.09;65.96
72756;SHT30;60881;55.002;73.232;2022-10-16T00:14:06;11.01;65.12
72756;SHT30;60881;55.002;73.232;2022-10-16T00:16:34;10.89;65.47
72756;SHT30;60881;55.002;73.232;2022-10-16T00:19:01;10.85;66.00
72756;SHT30;60881;55.002;73.232;2022-10-16T00:21:29;10.82;66.80
72756;SHT30;60881;55.002;73.232;2022-10-16T00:23:59;10.78;66.61
72756;SHT30;60881;55.002;73.232;2022-10-16T00:26:27;10.76;66.21
72756;SHT30;60881;55.002;73.232;2022-10-16T00:28:54;10.73;66.31
72756;SHT30;60881;55.002;73.232;2022-10-16T00:31:23;10.75;65.70
72756;SHT30;60881;55.002;73.232;2022-10-16T00:33:50;10.72;65.51
72756;SHT30;60881;55.002;73.232;2022-10-16T00:36:22;10.73;65.37
72756;SHT30;60881;55.002;73.232;2022-10-16T00:38:56;10.65;66.20
72756;SHT30;60881;55.002;73.232;2022-10-16T00:41:25;10.45;66.84
72756;SHT30;60881;55.002;73.232;2022-10-16T00:43:54;10.31;66.53
72756;SHT30;60881;55.002;73.232;2022-10-16T00:46:25;10.25;67.27
72756;SHT30;60881;55.002;73.232;2022-10-16T00:49:24;10.10;67.82
72756;SHT30;60881;55.002;73.232;2022-10-16T00:51:53;10.01;68.52
72756;SHT30;60881;55.002;73.232;2022-10-16T00:54:25;9.89;68.24
72756;SHT30;60881;55.002;73.232;2022-10-16T00:56:53;9.80;68.75
72756;SHT30;60881;55.002;73.232;2022-10-16T01:01:55;9.76;69.73
72756;SHT30;60881;55.002;73.232;2022-10-16T01:04:24;9.76;69.76
72756;SHT30;60881;55.002;73.232;2022-10-16T01:06:57;9.71;68.47
72756;SHT30;60881;55.002;73.232;2022-10-16T01:09:41;9.70;67.56
72756;SHT30;60881;55.002;73.232;2022-10-16T01:15:12;9.77;67.10
72756;SHT30;60881;55.002;73.232;2022-10-16T01:18:05;9.83;66.97
72756;SHT30;60881;55.002;73.232;2022-10-16T01:29:37;9.95;66.70
72756;SHT30;60881;55.002;73.232;2022-10-16T01:32:14;10.00;66.67
72756;SHT30;60881;55.002;73.232;2022-10-16T01:34:53;10.05;66.91
72756;SHT30;60881;55.002;73.232;2022-10-16T01:37:31;10.10;65.82
72756;SHT30;60881;55.002;73.232;2022-10-16T01:40:00;10.10;65.42
72756;SHT30;60881;55.002;73.232;2022-10-16T01:42:34;10.14;65.95
72756;SHT30;60881;55.002;73.232;2022-10-16T01:45:03;10.11;66.43
72756;SHT30;60881;55.002;73.232;2022-10-16T01:47:35;10.13;66.53
72756;SHT30;60881;55.002;73.232;2022-10-16T01:50:04;10.18;64.38
72756;SHT30;60881;55.002;73.232;2022-10-16T01:52:35;10.17;63.93
72756;SHT30;60881;55.002;73.232;2022-10-16T01:55:16;10.07;64.14
72756;SHT30;60881;55.002;73.232;2022-10-16T01:57:47;10.03;64.27
72756;SHT30;60881;55.002;73.232;2022-10-16T02:00:17;9.98;64.42
72756;SHT30;60881;55.002;73.232;2022-10-16T02:02:48;10.04;65.68
72756;SHT30;60881;55.002;73.232;2022-10-16T02:05:25;10.03;64.71
72756;SHT30;60881;55.002;73.232;2022-10-16T02:08:03;10.13;64.86
72756;SHT30;60881;55.002;73.232;2022-10-16T02:10:31;10.11;64.68
72756;SHT30;60881;55.002;73.232;2022-10-16T02:13:06;10.17;64.25
72756;SHT30;60881;55.002;73.232;2022-10-16T02:15:45;10.17;64.37
72756;SHT30;60881;55.002;73.232;2022-10-16T02:18:12;10.18;64.73
72756;SHT30;60881;55.002;73.232;2022-10-16T02:20:51;10.11;65.21
72756;SHT30;60881;55.002;73.232;2022-10-16T02:23:58;10.10;65.83
72756;SHT30;60881;55.002;73.232;2022-10-16T02:26:30;10.14;65.60
72756;SHT30;60881;55.002;73.232;2022-10-16T02:29:13;10.14;65.06
72756;SHT30;60881;55.002;73.232;2022-10-16T02:31:46;10.20;64.15
72756;SHT30;60881;55.002;73.232;2022-10-16T02:34:15;10.34;64.38
72756;SHT30;60881;55.002;73.232;2022-10-16T02:36:44;10.44;63.12
72756;SHT30;60881;55.002;73.232;2022-10-16T02:39:12;10.50;63.06
72756;SHT30;60881;55.002;73.232;2022-10-16T02:41:39;10.60;62.57
72756;SHT30;60881;55.002;73.232;2022-10-16T02:44:16;10.64;61.97
72756;SHT30;60881;55.002;73.232;2022-10-16T02:46:44;10.68;62.29
72756;SHT30;60881;55.002;73.232;2022-10-16T02:49:10;10.54;61.31
72756;SHT30;60881;55.002;73.232;2022-10-16T02:51:41;10.45;61.58
72756;SHT30;60881;55.002;73.232;2022-10-16T02:54:07;10.40;61.82
72756;SHT30;60881;55.002;73.232;2022-10-16T02:56:35;10.37;62.32
72756;SHT30;60881;55.002;73.232;2022-10-16T02:59:07;10.47;61.90
72756;SHT30;60881;55.002;73.232;2022-10-16T03:01:43;10.41;61.30
72756;SHT30;60881;55.002;73.232;2022-10-16T03:04:10;10.37;61.39
72756;SHT30;60881;55.002;73.232;2022-10-16T03:06:36;10.28;61.04
72756;SHT30;60881;55.002;73.232;2022-10-16T03:09:06;10.33;61.62
72756;SHT30;60881;55.002;73.232;2022-10-16T03:11:32;10.36;60.93
72756;SHT30;60881;55.002;73.232;2022-10-16T03:13:59;10.38;62.09
72756;SHT30;60881;55.002;73.232;2022-10-16T03:16:31;10.40;61.74
72756;SHT30;60881;55.002;73.232;2022-10-16T03:18:59;10.48;61.61
72756;SHT30;60881;55.002;73.232;2022-10-16T03:21:26;10.60;61.75
72756;SHT30;60881;55.002;73.232;2022-10-16T03:23:53;10.58;61.19
72756;SHT30;60881;55.002;73.232;2022-10-16T03:26:19;10.58;61.22
72756;SHT30;60881;55.002;73.232;2022-10-16T03:28:46;10.60;61.02
72756;SHT30;60881;55.002;73.232;2022-10-16T03:31:22;10.67;60.40
72756;SHT30;60881;55.002;73.232;2022-10-16T03:33:49;10.72;60.34
72756;SHT30;60881;55.002;73.232;2022-10-16T03:36:15;10.82;60.71
72756;SHT30;60881;55.002;73.232;2022-10-16T03:38:42;10.85;60.10
72756;SHT30;60881;55.002;73.232;2022-10-16T03:41:09;10.92;59.57
72756;SHT30;60881;55.002;73.232;2022-10-16T03:43:35;11.01;59.51
72756;SHT30;60881;55.002;73.232;2022-10-16T03:46:02;11.06;59.49
72756;SHT30;60881;55.002;73.232;2022-10-16T03:48:36;11.16;59.68
72756;SHT30;60881;55.002;73.232;2022-10-16T03:51:03;11.19;59.09
72756;SHT30;60881;55.002;73.232;2022-10-16T03:53:29;11.25;59.39
72756;SHT30;60881;55.002;73.232;2022-10-16T03:55:55;11.29;58.10
72756;SHT30;60881;55.002;73.232;2022-10-16T03:58:22;11.43;60.29
72756;SHT30;60881;55.002;73.232;2022-10-16T04:00:49;11.58;58.70
72756;SHT30;60881;55.002;73.232;2022-10-16T04:03:15;11.65;57.10
72756;SHT30;60881;55.002;73.232;2022-10-16T04:05:43;11.76;57.21
72756;SHT30;60881;55.002;73.232;2022-10-16T04:08:11;11.84;57.04
72756;SHT30;60881;55.002;73.232;2022-10-16T04:10:38;11.97;57.10
72756;SHT30;60881;55.002;73.232;2022-10-16T04:13:04;12.06;57.17
72756;SHT30;60881;55.002;73.232;2022-10-16T04:15:33;12.08;57.42
72756;SHT30;60881;55.002;73.232;2022-10-16T04:18:01;12.17;57.33
72756;SHT30;60881;55.002;73.232;2022-10-16T04:20:28;12.20;56.80
72756;SHT30;60881;55.002;73.232;2022-10-16T04:22:56;12.18;58.00
72756;SHT30;60881;55.002;73.232;2022-10-16T04:25:23;12.23;57.58
72756;SHT30;60881;55.002;73.232;2022-10-16T04:27:53;12.28;56.93
72756;SHT30;60881;55.002;73.232;2022-10-16T04:30:20;12.34;56.68
72756;SHT30;60881;55.002;73.232;2022-10-16T04:32:52;12.38;56.76
72756;SHT30;60881;55.002;73.232;2022-10-16T04:35:19;12.41;56.17
72756;SHT30;60881;55.002;73.232;2022-10-16T04:37:47;12.45;56.94
72756;SHT30;60881;55.002;73.232;2022-10-16T04:40:14;12.57;57.20
72756;SHT30;60881;55.002;73.232;2022-10-16T04:42:47;12.67;56.51
72756;SHT30;60881;55.002;73.232;2022-10-16T04:45:13;12.75;56.35
72756;SHT30;60881;55.002;73.232;2022-10-16T04:47:40;12.87;56.49
72756;SHT30;60881;55.002;73.232;2022-10-16T04:50:06;12.92;55.37
72756;SHT30;60881;55.002;73.232;2022-10-16T04:52:37;12.99;55.90
72756;SHT30;60881;55.002;73.232;2022-10-16T04:55:04;13.05;55.48
72756;SHT30;60881;55.002;73.232;2022-10-16T04:57:32;13.07;55.24
72756;SHT30;60881;55.002;73.232;2022-10-16T05:00:05;13.08;55.27
72756;SHT30;60881;55.002;73.232;2022-10-16T05:02:31;13.16;54.47
72756;SHT30;60881;55.002;73.232;2022-10-16T05:04:59;13.20;54.44
72756;SHT30;60881;55.002;73.232;2022-10-16T05:07:25;13.25;55.26
72756;SHT30;60881;55.002;73.232;2022-10-16T05:09:52;13.36;54.50
72756;SHT30;60881;55.002;73.232;2022-10-16T05:12:23;13.45;54.50
72756;SHT30;60881;55.002;73.232;2022-10-16T05:14:51;13.51;53.13
72756;SHT30;60881;55.002;73.232;2022-10-16T05:17:17;13.43;52.63
72756;SHT30;60881;55.002;73.232;2022-10-16T05:19:43;13.42;53.16
72756;SHT30;60881;55.002;73.232;2022-10-16T05:22:11;13.49;53.15
72756;SHT30;60881;55.002;73.232;2022-10-16T05:24:38;13.56;52.95
72756;SHT30;60881;55.002;73.232;2022-10-16T05:27:04;13.56;53.34
72756;SHT30;60881;55.002;73.232;2022-10-16T05:29:38;13.63;53.41
72756;SHT30;60881;55.002;73.232;2022-10-16T05:32:04;13.70;52.56
72756;SHT30;60881;55.002;73.232;2022-10-16T05:34:34;13.77;52.60
72756;SHT30;60881;55.002;73.232;2022-10-16T05:37:01;13.82;52.05
72756;SHT30;60881;55.002;73.232;2022-10-16T05:39:28;13.83;51.89
72756;SHT30;60881;55.002;73.232;2022-10-16T05:41:54;13.82;52.13
72756;SHT30;60881;55.002;73.232;2022-10-16T05:44:21;13.87;52.37
72756;SHT30;60881;55.002;73.232;2022-10-16T05:46:51;13.87;52.89
72756;SHT30;60881;55.002;73.232;2022-10-16T05:49:18;13.83;52.76
72756;SHT30;60881;55.002;73.232;2022-10-16T05:51:44;13.83;52.15
72756;SHT30;60881;55.002;73.232;2022-10-16T05:54:14;13.79;56.71
72756;SHT30;60881;55.002;73.232;2022-10-16T05:56:41;13.85;54.75
72756;SHT30;60881;55.002;73.232;2022-10-16T05:59:08;13.85;52.87
72756;SHT30;60881;55.002;73.232;2022-10-16T06:01:35;13.87;52.77
72756;SHT30;60881;55.002;73.232;2022-10-16T06:04:02;13.99;53.54
72756;SHT30;60881;55.002;73.232;2022-10-16T06:06:29;14.12;54.25
72756;SHT30;60881;55.002;73.232;2022-10-16T06:08:57;14.14;52.31
72756;SHT30;60881;55.002;73.232;2022-10-16T06:11:27;14.21;52.36
72756;SHT30;60881;55.002;73.232;2022-10-16T06:13:56;14.13;51.75
72756;SHT30;60881;55.002;73.232;2022-10-16T06:16:25;14.10;51.61
72756;SHT30;60881;55.002;73.232;2022-10-16T06:18:54;14.14;51.76
72756;SHT30;60881;55.002;73.232;2022-10-16T06:21:24;14.13;51.85
72756;SHT30;60881;55.002;73.232;2022-10-16T06:23:52;14.12;51.75
72756;SHT30;60881;55.002;73.232;2022-10-16T06:26:21;14.17;52.39
72756;SHT30;60881;55.002;73.232;2022-10-16T06:28:49;14.24;51.56
72756;SHT30;60881;55.002;73.232;2022-10-16T06:31:16;14.23;51.64
72756;SHT30;60881;55.002;73.232;2022-10-16T06:33:43;14.17;52.65
72756;SHT30;60881;55.002;73.232;2022-10-16T06:36:16;14.10;52.72
72756;SHT30;60881;55.002;73.232;2022-10-16T06:38:43;14.02;52.68
72756;SHT30;60881;55.002;73.232;2022-10-16T06:41:14;14.09;53.04
72756;SHT30;60881;55.002;73.232;2022-10-16T06:43:41;14.16;53.50
72756;SHT30;60881;55.002;73.232;2022-10-16T06:46:11;14.24;53.22
72756;SHT30;60881;55.002;73.232;2022-10-16T06:48:38;14.34;53.74
72756;SHT30;60881;55.002;73.232;2022-10-16T06:51:08;14.38;52.51
72756;SHT30;60881;55.002;73.232;2022-10-16T06:53:38;14.41;53.37
72756;SHT30;60881;55.002;73.232;2022-10-16T06:56:14;14.45;53.03
72756;SHT30;60881;55.002;73.232;2022-10-16T06:58:41;14.47;53.27
72756;SHT30;60881;55.002;73.232;2022-10-16T07:01:10;14.40;54.48
72756;SHT30;60881;55.002;73.232;2022-10-16T07:03:39;14.37;53.85
72756;SHT30;60881;55.002;73.232;2022-10-16T07:06:07;14.36;54.13
72756;SHT30;60881;55.002;73.232;2022-10-16T07:08:42;14.36;54.15
72756;SHT30;60881;55.002;73.232;2022-10-16T07:11:16;14.30;54.44
72756;SHT30;60881;55.002;73.232;2022-10-16T07:13:44;14.31;55.37
72756;SHT30;60881;55.002;73.232;2022-10-16T07:16:17;14.38;55.91
72756;SHT30;60881;55.002;73.232;2022-10-16T07:18:44;14.37;55.61
72756;SHT30;60881;55.002;73.232;2022-10-16T07:21:16;14.38;57.04
72756;SHT30;60881;55.002;73.232;2022-10-16T07:23:50;14.40;55.52
72756;SHT30;60881;55.002;73.232;2022-10-16T07:26:17;14.37;56.06
72756;SHT30;60881;55.002;73.232;2022-10-16T07:28:44;14.30;55.74
72756;SHT30;60881;55.002;73.232;2022-10-16T07:31:12;14.23;56.24
72756;SHT30;60881;55.002;73.232;2022-10-16T07:33:40;14.23;56.13
72756;SHT30;60881;55.002;73.232;2022-10-16T07:36:09;14.19;56.11
72756;SHT30;60881;55.002;73.232;2022-10-16T07:38:37;14.12;56.48
72756;SHT30;60881;55.002;73.232;2022-10-16T07:41:06;14.07;56.75
72756;SHT30;60881;55.002;73.232;2022-10-16T07:43:33;14.13;56.67
72756;SHT30;60881;55.002;73.232;2022-10-16T07:46:10;14.21;56.66
72756;SHT30;60881;55.002;73.232;2022-10-16T07:48:37;14.26;56.61
72756;SHT30;60881;55.002;73.232;2022-10-16T07:51:06;14.38;55.96
72756;SHT30;60881;55.002;73.232;2022-10-16T07:53:33;14.50;55.70
72756;SHT30;60881;55.002;73.232;2022-10-16T07:56:05;14.54;54.95
72756;SHT30;60881;55.002;73.232;2022-10-16T07:58:32;14.59;55.73
72756;SHT30;60881;55.002;73.232;2022-10-16T08:01:07;14.74;55.21
72756;SHT30;60881;55.002;73.232;2022-10-16T08:03:35;14.85;55.09
72756;SHT30;60881;55.002;73.232;2022-10-16T08:06:02;14.97;55.37
72756;SHT30;60881;55.002;73.232;2022-10-16T08:08:29;15.02;54.55
72756;SHT30;60881;55.002;73.232;2022-10-16T08:10:57;15.05;55.47
72756;SHT30;60881;55.002;73.232;2022-10-16T08:13:25;15.07;54.98
72756;SHT30;60881;55.002;73.232;2022-10-16T08:15:54;15.02;54.46
72756;SHT30;60881;55.002;73.232;2022-10-16T08:18:21;15.04;55.18
72756;SHT30;60881;55.002;73.232;2022-10-16T08:20:58;15.14;55.58
72756;SHT30;60881;55.002;73.232;2022-10-16T08:23:26;15.08;54.80
72756;SHT30;60881;55.002;73.232;2022-10-16T08:25:54;15.11;55.06
72756;SHT30;60881;55.002;73.232;2022-10-16T08:28:22;15.12;55.13
72756;SHT30;60881;55.002;73.232;2022-10-16T08:30:48;15.12;54.99
72756;SHT30;60881;55.002;73.232;2022-10-16T08:33:15;15.14;55.35
72756;SHT30;60881;55.002;73.232;2022-10-16T08:35:41;15.15;55.01
72756;SHT30;60881;55.002;73.232;2022-10-16T08:38:09;15.14;55.24
72756;SHT30;60881;55.002;73.232;2022-10-16T08:40:37;15.11;55.42
72756;SHT30;60881;55.002;73.232;2022-10-16T08:46:07;15.04;55.56
72756;SHT30;60881;55.002;73.232;2022-10-16T08:48:50;15.08;55.23
72756;SHT30;60881;55.002;73.232;2022-10-16T08:51:30;15.08;55.25
72756;SHT30;60881;55.002;73.232;2022-10-16T08:54:05;15.01;55.79
72756;SHT30;60881;55.002;73.232;2022-10-16T08:56:32;14.98;55.87
72756;SHT30;60881;55.002;73.232;2022-10-16T08:58:59;15.01;56.19
72756;SHT30;60881;55.002;73.232;2022-10-16T09:01:44;14.99;55.98
72756;SHT30;60881;55.002;73.232;2022-10-16T09:12:58;15.09;55.83
72756;SHT30;60881;55.002;73.232;2022-10-16T09:15:36;15.09;55.73
72756;SHT30;60881;55.002;73.232;2022-10-16T09:21:42;15.19;55.06
72756;SHT30;60881;55.002;73.232;2022-10-16T09:23:58;15.17;55.34
72756;SHT30;60881;55.002;73.232;2022-10-16T09:26:26;15.17;55.46
72756;SHT30;60881;55.002;73.232;2022-10-16T09:28:55;15.12;55.63
72756;SHT30;60881;55.002;73.232;2022-10-16T09:31:22;15.05;55.91
72756;SHT30;60881;55.002;73.232;2022-10-16T09:33:53;14.98;56.12
72756;SHT30;60881;55.002;73.232;2022-10-16T09:36:23;14.94;56.34
72756;SHT30;60881;55.002;73.232;2022-10-16T09:38:50;14.89;56.82
72756;SHT30;60881;55.002;73.232;2022-10-16T09:41:21;14.81;57.15
72756;SHT30;60881;55.002;73.232;2022-10-16T09:43:55;14.77;57.36
72756;SHT30;60881;55.002;73.232;2022-10-16T09:46:31;14.68;57.77
72756;SHT30;60881;55.002;73.232;2022-10-16T09:49:04;14.63;58.13
72756;SHT30;60881;55.002;73.232;2022-10-16T09:51:36;14.57;58.42
72756;SHT30;60881;55.002;73.232;2022-10-16T09:56:37;14.56;59.23
72756;SHT30;60881;55.002;73.232;2022-10-16T09:59:13;14.56;60.04
72756;SHT30;60881;55.002;73.232;2022-10-16T10:01:45;14.59;60.70
72756;SHT30;60881;55.002;73.232;2022-10-16T10:04:19;14.57;61.42
72756;SHT30;60881;55.002;73.232;2022-10-16T10:06:50;14.50;61.46
72756;SHT30;60881;55.002;73.232;2022-10-16T10:09:39;14.38;62.49
72756;SHT30;60881;55.002;73.232;2022-10-16T10:12:28;14.37;62.44
72756;SHT30;60881;55.002;73.232;2022-10-16T10:14:56;14.34;63.01
72756;SHT30;60881;55.002;73.232;2022-10-16T10:17:27;14.23;63.36
72756;SHT30;60881;55.002;73.232;2022-10-16T10:19:59;14.19;63.56
72756;SHT30;60881;55.002;73.232;2022-10-16T10:31:04;14.09;63.95
72756;SHT30;60881;55.002;73.232;2022-10-16T10:33:54;14.02;63.79
72756;SHT30;60881;55.002;73.232;2022-10-16T10:36:33;13.95;64.60
72756;SHT30;60881;55.002;73.232;2022-10-16T10:42:09;13.90;64.06
72756;SHT30;60881;55.002;73.232;2022-10-16T10:53:35;13.66;64.18
72756;SHT30;60881;55.002;73.232;2022-10-16T10:56:10;13.69;64.72
72756;SHT30;60881;55.002;73.232;2022-10-16T10:59:01;13.67;64.59
72756;SHT30;60881;55.002;73.232;2022-10-16T11:01:40;13.72;65.08
72756;SHT30;60881;55.002;73.232;2022-10-16T11:07:01;13.65;64.69
72756;SHT30;60881;55.002;73.232;2022-10-16T11:09:52;13.59;65.01
72756;SHT30;60881;55.002;73.232;2022-10-16T11:12:44;13.53;65.09
72756;SHT30;60881;55.002;73.232;2022-10-16T11:15:32;13.46;64.89
72756;SHT30;60881;55.002;73.232;2022-10-16T11:18:06;13.34;65.27
72756;SHT30;60881;55.002;73.232;2022-10-16T11:20:56;13.22;65.17
72756;SHT30;60881;55.002;73.232;2022-10-16T11:23:31;13.18;65.80
72756;SHT30;60881;55.002;73.232;2022-10-16T11:26:08;13.09;66.02
72756;SHT30;60881;55.002;73.232;2022-10-16T11:28:47;13.05;66.49
72756;SHT30;60881;55.002;73.232;2022-10-16T11:33:57;12.95;66.56
72756;SHT30;60881;55.002;73.232;2022-10-16T11:36:42;12.96;66.45
72756;SHT30;60881;55.002;73.232;2022-10-16T11:39:30;12.96;65.82
72756;SHT30;60881;55.002;73.232;2022-10-16T11:42:02;12.91;65.46
72756;SHT30;60881;55.002;73.232;2022-10-16T11:45:02;12.88;65.33
72756;SHT30;60881;55.002;73.232;2022-10-16T11:47:48;12.83;65.41
72756;SHT30;60881;55.002;73.232;2022-10-16T11:55:48;12.80;64.92
72756;SHT30;60881;55.002;73.232;2022-10-16T12:00:57;12.78;65.05
72756;SHT30;60881;55.002;73.232;2022-10-16T12:03:33;12.78;64.97
72756;SHT30;60881;55.002;73.232;2022-10-16T12:08:41;12.77;65.34
72756;SHT30;60881;55.002;73.232;2022-10-16T12:11:35;12.67;64.74
72756;SHT30;60881;55.002;73.232;2022-10-16T12:16:54;12.50;65.46
72756;SHT30;60881;55.002;73.232;2022-10-16T12:19:22;12.42;65.94
72756;SHT30;60881;55.002;73.232;2022-10-16T12:21:50;12.36;65.95
72756;SHT30;60881;55.002;73.232;2022-10-16T12:24:33;12.34;66.26
72756;SHT30;60881;55.002;73.232;2022-10-16T12:27:02;12.33;66.52
72756;SHT30;60881;55.002;73.232;2022-10-16T12:29:32;12.31;67.27
72756;SHT30;60881;55.002;73.232;2022-10-16T12:32:00;12.34;67.47
72756;SHT30;60881;55.002;73.232;2022-10-16T12:34:52;12.30;67.45
72756;SHT30;60881;55.002;73.232;2022-10-16T12:37:24;12.31;67.29
72756;SHT30;60881;55.002;73.232;2022-10-16T12:39:53;12.28;67.11
72756;SHT30;60881;55.002;73.232;2022-10-16T12:44:56;12.40;67.01
72756;SHT30;60881;55.002;73.232;2022-10-16T12:49:59;12.42;67.09
72756;SHT30;60881;55.002;73.232;2022-10-16T12:55:03;12.40;67.38
72756;SHT30;60881;55.002;73.232;2022-10-16T12:58:22;12.36;67.36
72756;SHT30;60881;55.002;73.232;2022-10-16T13:01:01;12.33;67.18
72756;SHT30;60881;55.002;73.232;2022-10-16T13:06:51;12.28;67.23
72756;SHT30;60881;55.002;73.232;2022-10-16T13:20:31;12.31;67.07
72756;SHT30;60881;55.002;73.232;2022-10-16T13:28:43;12.27;67.29
72756;SHT30;60881;55.002;73.232;2022-10-16T13:31:16;12.30;67.23
72756;SHT30;60881;55.002;73.232;2022-10-16T13:33:49;12.30;67.27
72756;SHT30;60881;55.002;73.232;2022-10-16T13:36:30;12.28;67.07
72756;SHT30;60881;55.002;73.232;2022-10-16T13:39:12;12.23;67.14
72756;SHT30;60881;55.002;73.232;2022-10-16T13:41:40;12.26;66.94
72756;SHT30;60881;55.002;73.232;2022-10-16T13:44:19;12.24;67.02
72756;SHT30;60881;55.002;73.232;2022-10-16T13:47:00;12.17;67.03
72756;SHT30;60881;55.002;73.232;2022-10-16T13:49:28;12.17;67.30
72756;SHT30;60881;55.002;73.232;2022-10-16T13:52:02;12.16;67.26
72756;SHT30;60881;55.002;73.232;2022-10-16T13:54:29;12.16;67.40
72756;SHT30;60881;55.002;73.232;2022-10-16T13:56:55;12.18;67.61
72756;SHT30;60881;55.002;73.232;2022-10-16T13:59:26;12.23;67.39
72756;SHT30;60881;55.002;73.232;2022-10-16T14:01:56;12.26;67.72
72756;SHT30;60881;55.002;73.232;2022-10-16T14:04:23;12.31;67.37
72756;SHT30;60881;55.002;73.232;2022-10-16T14:06:52;12.37;67.30
72756;SHT30;60881;55.002;73.232;2022-10-16T14:09:27;12.38;67.10
72756;SHT30;60881;55.002;73.232;2022-10-16T14:12:12;12.44;66.87
72756;SHT30;60881;55.002;73.232;2022-10-16T14:14:47;12.44;67.01
72756;SHT30;60881;55.002;73.232;2022-10-16T14:17:26;12.37;67.10
72756;SHT30;60881;55.002;73.232;2022-10-16T14:19:55;12.31;67.40
72756;SHT30;60881;55.002;73.232;2022-10-16T14:22:46;12.28;67.35
72756;SHT30;60881;55.002;73.232;2022-10-16T14:28:16;12.12;67.85
72756;SHT30;60881;55.002;73.232;2022-10-16T14:30:56;11.98;68.45
72756;SHT30;60881;55.002;73.232;2022-10-16T14:38:39;11.66;69.52
72756;SHT30;60881;55.002;73.232;2022-10-16T14:41:06;11.65;69.54
72756;SHT30;60881;55.002;73.232;2022-10-16T14:46:15;11.47;71.12
72756;SHT30;60881;55.002;73.232;2022-10-16T14:48:45;11.44;71.79
72756;SHT30;60881;55.002;73.232;2022-10-16T14:51:17;11.43;71.88
72756;SHT30;60881;55.002;73.232;2022-10-16T14:53:47;11.40;72.18
72756;SHT30;60881;55.002;73.232;2022-10-16T14:56:22;11.40;72.79
72756;SHT30;60881;55.002;73.232;2022-10-16T14:58:51;11.38;72.92
72756;SHT30;60881;55.002;73.232;2022-10-16T15:01:18;11.39;73.14
72756;SHT30;60881;55.002;73.232;2022-10-16T15:03:54;11.40;71.78
72756;SHT30;60881;55.002;73.232;2022-10-16T15:06:22;11.36;72.84
72756;SHT30;60881;55.002;73.232;2022-10-16T15:08:49;11.38;72.19
72756;SHT30;60881;55.002;73.232;2022-10-16T15:11:18;11.36;72.36
72756;SHT30;60881;55.002;73.232;2022-10-16T15:13:45;11.35;72.35
72756;SHT30;60881;55.002;73.232;2022-10-16T15:16:16;11.29;71.87
72756;SHT30;60881;55.002;73.232;2022-10-16T15:18:43;11.22;71.50
72756;SHT30;60881;55.002;73.232;2022-10-16T15:23:55;11.26;71.51
72756;SHT30;60881;55.002;73.232;2022-10-16T15:26:24;11.26;70.99
72756;SHT30;60881;55.002;73.232;2022-10-16T15:28:51;11.30;70.39
72756;SHT30;60881;55.002;73.232;2022-10-16T15:31:18;11.36;69.92
72756;SHT30;60881;55.002;73.232;2022-10-16T15:33:45;11.38;69.65
72756;SHT30;60881;55.002;73.232;2022-10-16T15:36:28;11.40;69.27
72756;SHT30;60881;55.002;73.232;2022-10-16T15:38:56;11.42;68.93
72756;SHT30;60881;55.002;73.232;2022-10-16T15:41:29;11.43;68.86
72756;SHT30;60881;55.002;73.232;2022-10-16T15:43:56;11.44;68.85
72756;SHT30;60881;55.002;73.232;2022-10-16T15:46:24;11.40;68.89
72756;SHT30;60881;55.002;73.232;2022-10-16T15:49:02;11.26;69.46
72756;SHT30;60881;55.002;73.232;2022-10-16T15:51:39;11.23;69.92
72756;SHT30;60881;55.002;73.232;2022-10-16T15:54:08;11.22;69.92
72756;SHT30;60881;55.002;73.232;2022-10-16T15:56:35;11.23;70.49
72756;SHT30;60881;55.002;73.232;2022-10-16T15:59:03;11.28;70.12
72756;SHT30;60881;55.002;73.232;2022-10-16T16:01:34;11.28;69.95
72756;SHT30;60881;55.002;73.232;2022-10-16T16:04:07;11.26;69.77
72756;SHT30;60881;55.002;73.232;2022-10-16T16:06:40;11.25;69.85
72756;SHT30;60881;55.002;73.232;2022-10-16T16:09:14;11.32;69.78
72756;SHT30;60881;55.002;73.232;2022-10-16T16:11:41;11.38;69.92
72756;SHT30;60881;55.002;73.232;2022-10-16T16:14:12;11.35;69.68
72756;SHT30;60881;55.002;73.232;2022-10-16T16:16:39;11.38;69.90
72756;SHT30;60881;55.002;73.232;2022-10-16T16:19:09;11.38;69.90
72756;SHT30;60881;55.002;73.232;2022-10-16T16:21:35;11.35;70.04
72756;SHT30;60881;55.002;73.232;2022-10-16T16:24:02;11.33;70.10
72756;SHT30;60881;55.002;73.232;2022-10-16T16:26:45;11.30;69.87
72756;SHT30;60881;55.002;73.232;2022-10-16T16:29:14;11.39;69.98
72756;SHT30;60881;55.002;73.232;2022-10-16T16:31:42;11.42;69.47
72756;SHT30;60881;55.002;73.232;2022-10-16T16:34:09;11.39;69.40
72756;SHT30;60881;55.002;73.232;2022-10-16T16:36:36;11.40;69.97
72756;SHT30;60881;55.002;73.232;2022-10-16T16:39:04;11.35;69.96
72756;SHT30;60881;55.002;73.232;2022-10-16T16:41:30;11.29;69.81
72756;SHT30;60881;55.002;73.232;2022-10-16T16:44:03;11.29;70.14
72756;SHT30;60881;55.002;73.232;2022-10-16T16:46:31;11.19;70.52
72756;SHT30;60881;55.002;73.232;2022-10-16T16:48:59;11.12;70.94
72756;SHT30;60881;55.002;73.232;2022-10-16T16:51:25;11.09;70.93
72756;SHT30;60881;55.002;73.232;2022-10-16T16:53:53;11.09;71.19
72756;SHT30;60881;55.002;73.232;2022-10-16T16:56:22;11.05;71.08
72756;SHT30;60881;55.002;73.232;2022-10-16T16:58:50;10.96;71.11
72756;SHT30;60881;55.002;73.232;2022-10-16T17:01:17;10.96;71.16
72756;SHT30;60881;55.002;73.232;2022-10-16T17:03:47;10.92;71.07
72756;SHT30;60881;55.002;73.232;2022-10-16T17:06:27;10.95;71.13
72756;SHT30;60881;55.002;73.232;2022-10-16T17:08:55;10.88;71.21
72756;SHT30;60881;55.002;73.232;2022-10-16T17:11:27;10.79;71.45
72756;SHT30;60881;55.002;73.232;2022-10-16T17:13:59;10.84;71.90
72756;SHT30;60881;55.002;73.232;2022-10-16T17:16:32;10.84;71.42
72756;SHT30;60881;55.002;73.232;2022-10-16T17:19:01;10.89;71.95
72756;SHT30;60881;55.002;73.232;2022-10-16T17:21:28;10.91;71.68
72756;SHT30;60881;55.002;73.232;2022-10-16T17:23:55;10.85;73.12
72756;SHT30;60881;55.002;73.232;2022-10-16T17:26:23;10.78;73.94
72756;SHT30;60881;55.002;73.232;2022-10-16T17:28:53;10.71;74.81
72756;SHT30;60881;55.002;73.232;2022-10-16T17:31:22;10.68;75.72
72756;SHT30;60881;55.002;73.232;2022-10-16T17:33:50;10.65;76.07
72756;SHT30;60881;55.002;73.232;2022-10-16T17:36:20;10.69;76.59